createdAt,value
2019-02-09T00:01:59.118Z,6.62
2019-02-09T00:04:29.652Z,6.66
2019-02-09T00:07:00.220Z,6.56
2019-02-09T00:09:33.549Z,6.56
2019-02-09T00:12:04.725Z,6.53
2019-02-09T00:14:35.300Z,6.64
2019-02-09T00:17:06.099Z,6.66
2019-02-09T00:19:36.792Z,6.80
2019-02-09T00:22:07.265Z,6.65
2019-02-09T00:24:37.555Z,6.72
2019-02-09T00:27:08.120Z,6.62
2019-02-09T00:29:45.909Z,6.72
2019-02-09T00:32:11.019Z,6.65
2019-02-09T00:34:41.703Z,6.70
2019-02-09T00:37:12.303Z,6.66
2019-02-09T00:39:42.811Z,6.62
2019-02-09T00:42:13.436Z,6.76
2019-02-09T00:44:44.169Z,6.80
2019-02-09T00:47:15.050Z,6.87
2019-02-09T00:49:45.747Z,6.80
2019-02-09T00:52:16.118Z,6.76
2019-02-09T00:54:46.705Z,6.70
2019-02-09T00:57:17.349Z,6.50
2019-02-09T00:59:54.090Z,6.63
2019-02-09T01:02:20.234Z,6.62
2019-02-09T01:04:50.776Z,6.73
2019-02-09T01:07:21.404Z,6.72
2019-02-09T01:09:52.037Z,6.57
2019-02-09T01:12:23.564Z,6.84
2019-02-09T01:14:54.102Z,6.92
2019-02-09T01:17:24.717Z,6.67
2019-02-09T01:19:55.248Z,6.58
2019-02-09T01:22:25.946Z,6.72
2019-02-09T01:24:56.514Z,6.58
2019-02-09T01:27:27.495Z,6.72
2019-02-09T01:30:02.576Z,6.52
2019-02-09T01:32:30.485Z,6.66
2019-02-09T01:35:01.087Z,6.78
2019-02-09T01:37:31.637Z,6.62
2019-02-09T01:40:02.395Z,6.60
2019-02-09T01:42:33.211Z,6.43
2019-02-09T01:45:03.956Z,6.51
2019-02-09T01:47:34.703Z,6.51
2019-02-09T01:50:14.611Z,6.48
2019-02-09T01:52:45.162Z,6.47
2019-02-09T01:55:15.408Z,6.44
2019-02-09T01:57:46.020Z,6.60
2019-02-09T02:00:21.661Z,6.47
2019-02-09T02:02:52.412Z,6.51
2019-02-09T02:05:24.674Z,6.52
2019-02-09T02:07:55.418Z,6.44
2019-02-09T02:10:31.466Z,6.40
2019-02-09T02:13:02.276Z,6.43
2019-02-09T02:15:32.452Z,6.48
2019-02-09T02:18:03.640Z,6.49
2019-02-09T02:20:34.288Z,6.59
2019-02-09T02:23:05.241Z,6.61
2019-02-09T02:25:35.519Z,6.68
2019-02-09T02:28:06.081Z,6.80
2019-02-09T02:30:38.356Z,6.72
2019-02-09T02:33:09.095Z,6.62
2019-02-09T02:35:39.817Z,6.58
2019-02-09T02:38:10.461Z,6.64
2019-02-09T02:40:41.187Z,6.57
2019-02-09T02:43:11.814Z,6.52
2019-02-09T02:45:42.074Z,6.58
2019-02-09T02:48:12.670Z,6.67
2019-02-09T02:50:48.322Z,6.54
2019-02-09T02:53:20.493Z,6.56
2019-02-09T02:55:51.020Z,6.54
2019-02-09T02:58:21.541Z,6.55
2019-02-09T03:00:52.196Z,6.34
2019-02-09T03:03:22.821Z,6.46
2019-02-09T03:05:53.436Z,6.48
2019-02-09T03:08:24.081Z,6.44
2019-02-09T03:10:54.711Z,6.36
2019-02-09T03:13:25.434Z,6.42
2019-02-09T03:15:56.074Z,6.40
2019-02-09T03:18:26.695Z,6.22
2019-02-09T03:20:57.324Z,6.29
2019-02-09T03:23:27.866Z,6.44
2019-02-09T03:25:58.503Z,6.36
2019-02-09T03:28:29.131Z,6.38
2019-02-09T03:30:59.756Z,6.36
2019-02-09T03:33:30.388Z,6.44
2019-02-09T03:36:01.011Z,6.44
2019-02-09T03:38:31.646Z,6.52
2019-02-09T03:41:02.482Z,6.75
2019-02-09T03:43:33.007Z,6.66
2019-02-09T03:46:03.748Z,6.72
2019-02-09T03:48:33.972Z,6.86
2019-02-09T03:51:04.600Z,6.86
2019-02-09T03:53:35.247Z,6.80
2019-02-09T03:56:05.868Z,6.96
2019-02-09T03:58:36.395Z,6.96
2019-02-09T04:01:06.677Z,6.92
2019-02-09T04:03:37.245Z,6.93
2019-02-09T04:06:07.894Z,7.13
2019-02-09T04:08:38.549Z,7.18
2019-02-09T04:11:09.194Z,7.32
2019-02-09T04:13:39.454Z,7.19
2019-02-09T04:16:09.990Z,7.04
2019-02-09T04:18:40.562Z,7.02
2019-02-09T04:21:11.078Z,7.26
2019-02-09T04:23:41.699Z,7.34
2019-02-09T04:26:12.353Z,7.44
2019-02-09T04:28:42.970Z,7.29
2019-02-09T04:31:13.599Z,7.28
2019-02-09T04:33:44.315Z,7.16
2019-02-09T04:36:14.843Z,7.30
2019-02-09T04:38:45.483Z,7.34
2019-02-09T04:41:16.001Z,7.30
2019-02-09T04:43:46.543Z,7.39
2019-02-09T04:46:16.725Z,7.50
2019-02-09T04:48:47.301Z,7.38
2019-02-09T04:51:17.546Z,7.36
2019-02-09T04:53:48.167Z,7.36
2019-02-09T04:56:18.800Z,7.48
2019-02-09T04:58:49.444Z,7.42
2019-02-09T05:01:20.269Z,7.48
2019-02-09T05:03:50.989Z,7.48
2019-02-09T05:06:21.617Z,7.34
2019-02-09T05:08:52.255Z,7.52
2019-02-09T05:11:22.488Z,7.69
2019-02-09T05:13:53.015Z,7.64
2019-02-09T05:16:23.631Z,7.65
2019-02-09T05:18:54.186Z,7.65
2019-02-09T05:21:24.948Z,7.60
2019-02-09T05:23:55.532Z,7.71
2019-02-09T05:26:26.075Z,7.59
2019-02-09T05:28:56.353Z,7.70
2019-02-09T05:31:26.907Z,7.90
2019-02-09T05:33:57.575Z,7.85
2019-02-09T05:36:28.175Z,7.68
2019-02-09T05:38:58.910Z,7.69
2019-02-09T05:41:29.526Z,7.66
2019-02-09T05:44:00.109Z,7.72
2019-02-09T05:46:30.816Z,7.75
2019-02-09T05:49:01.473Z,7.82
2019-02-09T05:51:32.193Z,8.10
2019-02-09T05:54:03.025Z,7.87
2019-02-09T05:56:33.637Z,7.67
2019-02-09T05:59:04.176Z,7.56
2019-02-09T06:01:34.828Z,7.80
2019-02-09T06:04:05.585Z,7.56
2019-02-09T06:06:36.164Z,7.58
2019-02-09T06:09:07.506Z,7.68
2019-02-09T06:11:37.990Z,7.76
2019-02-09T06:14:08.573Z,7.90
2019-02-09T06:16:38.853Z,7.94
2019-02-09T06:19:09.276Z,7.82
2019-02-09T06:21:39.863Z,7.71
2019-02-09T06:24:13.022Z,7.63
2019-02-09T06:26:43.725Z,7.30
2019-02-09T06:29:14.530Z,7.42
2019-02-09T06:31:45.055Z,7.38
2019-02-09T06:34:15.700Z,7.22
2019-02-09T06:36:46.370Z,7.04
2019-02-09T06:39:17.209Z,7.11
2019-02-09T06:41:47.790Z,7.14
2019-02-09T06:44:18.124Z,7.10
2019-02-09T06:46:48.632Z,7.14
2019-02-09T06:49:19.376Z,7.08
2019-02-09T06:51:49.999Z,7.10
2019-02-09T06:54:20.642Z,7.21
2019-02-09T06:56:50.893Z,7.19
2019-02-09T06:59:21.488Z,7.18
2019-02-09T07:01:52.526Z,7.18
2019-02-09T07:04:23.266Z,7.22
2019-02-09T07:06:54.007Z,7.28
2019-02-09T07:09:24.502Z,7.36
2019-02-09T07:11:55.053Z,7.43
2019-02-09T07:14:25.770Z,7.50
2019-02-09T07:16:56.336Z,7.44
2019-02-09T07:19:26.993Z,7.40
2019-02-09T07:21:59.979Z,7.29
2019-02-09T07:24:29.881Z,7.48
2019-02-09T07:27:00.707Z,7.28
2019-02-09T07:29:31.025Z,7.38
2019-02-09T07:32:01.546Z,7.26
2019-02-09T07:34:31.938Z,7.32
2019-02-09T07:37:04.135Z,7.20
2019-02-09T07:39:34.660Z,7.23
2019-02-09T07:42:05.209Z,7.32
2019-02-09T07:44:35.962Z,7.02
2019-02-09T07:47:06.675Z,6.88
2019-02-09T07:49:37.393Z,7.52
2019-02-09T07:52:07.659Z,7.86
2019-02-09T07:54:38.379Z,8.26
2019-02-09T07:57:09.130Z,8.30
2019-02-09T07:59:39.875Z,8.10
2019-02-09T08:02:10.634Z,7.89
2019-02-09T08:04:41.375Z,7.74
2019-02-09T08:07:14.698Z,7.53
2019-02-09T08:09:45.724Z,7.36
2019-02-09T08:12:16.403Z,7.31
2019-02-09T08:14:50.151Z,7.20
2019-02-09T08:17:20.772Z,6.98
2019-02-09T08:19:55.768Z,6.80
2019-02-09T08:22:29.615Z,6.92
2019-02-09T08:24:59.963Z,7.02
2019-02-09T08:27:30.761Z,7.15
2019-02-09T08:30:05.197Z,7.20
2019-02-09T08:32:35.878Z,7.09
2019-02-09T08:35:07.093Z,7.28
2019-02-09T08:37:37.746Z,7.28
2019-02-09T08:40:11.041Z,7.22
2019-02-09T08:42:41.397Z,7.34
2019-02-09T08:45:22.175Z,7.43
2019-02-09T08:47:52.766Z,7.34
2019-02-09T08:50:35.111Z,7.38
2019-02-09T08:53:05.810Z,7.38
2019-02-09T08:55:36.459Z,7.40
2019-02-09T08:58:07.303Z,7.51
2019-02-09T09:00:38.395Z,7.50
2019-02-09T09:03:11.754Z,7.64
2019-02-09T09:05:46.180Z,7.70
2019-02-09T09:08:17.357Z,7.78
2019-02-09T09:10:48.035Z,7.74
2019-02-09T09:13:18.379Z,7.66
2019-02-09T09:15:52.259Z,7.84
2019-02-09T09:18:22.999Z,7.80
2019-02-09T09:20:56.589Z,7.89
2019-02-09T09:23:27.164Z,7.82
2019-02-09T09:26:00.811Z,7.97
2019-02-09T09:28:31.652Z,8.10
2019-02-09T09:31:02.418Z,8.20
2019-02-09T09:33:33.123Z,8.21
2019-02-09T09:36:03.862Z,8.20
2019-02-09T09:38:34.493Z,8.33
2019-02-09T09:41:05.325Z,8.42
2019-02-09T09:43:37.056Z,8.55
2019-02-09T09:46:09.550Z,8.66
2019-02-09T09:48:43.253Z,8.76
2019-02-09T09:51:13.891Z,8.74
2019-02-09T09:53:45.161Z,8.82
2019-02-09T09:56:15.891Z,8.98
2019-02-09T09:58:46.748Z,9.00
2019-02-09T10:01:17.466Z,9.08
2019-02-09T10:03:47.691Z,9.00
2019-02-09T10:06:21.171Z,9.02
2019-02-09T10:08:51.897Z,9.13
2019-02-09T10:11:23.114Z,9.18
2019-02-09T10:13:53.734Z,9.14
2019-02-09T10:16:24.403Z,9.24
2019-02-09T10:18:55.049Z,9.24
2019-02-09T10:21:25.767Z,9.35
2019-02-09T10:23:56.742Z,9.37
2019-02-09T10:26:27.119Z,9.30
2019-02-09T10:28:57.777Z,9.32
2019-02-09T10:31:31.654Z,9.34
2019-02-09T10:34:02.421Z,9.36
2019-02-09T10:36:33.135Z,9.42
2019-02-09T10:39:05.399Z,11.35
2019-02-09T10:41:37.676Z,10.27
2019-02-09T10:44:08.460Z,10.19
2019-02-09T10:46:39.166Z,10.15
2019-02-09T10:49:09.905Z,9.98
2019-02-09T10:51:40.615Z,10.00
2019-02-09T10:54:11.229Z,9.92
2019-02-09T10:56:41.460Z,10.00
2019-02-09T10:59:12.098Z,10.10
2019-02-09T11:01:42.643Z,10.18
2019-02-09T11:04:13.264Z,10.24
2019-02-09T11:06:43.568Z,10.28
2019-02-09T11:09:20.263Z,10.36
2019-02-09T11:11:51.006Z,10.33
2019-02-09T11:14:21.695Z,10.35
2019-02-09T11:16:53.398Z,10.28
2019-02-09T11:19:25.738Z,10.32
2019-02-09T11:21:56.631Z,10.36
2019-02-09T11:24:27.245Z,10.39
2019-02-09T11:26:57.962Z,10.47
2019-02-09T11:29:28.482Z,10.46
2019-02-09T11:31:59.126Z,10.50
2019-02-09T11:34:29.645Z,10.58
2019-02-09T11:37:00.437Z,10.62
2019-02-09T11:39:31.023Z,10.56
2019-02-09T11:42:01.746Z,10.51
2019-02-09T11:44:32.382Z,10.56
2019-02-09T11:47:02.703Z,10.59
2019-02-09T11:49:34.972Z,10.53
2019-02-09T11:52:05.787Z,10.53
2019-02-09T11:54:36.337Z,10.61
2019-02-09T11:57:06.970Z,10.52
2019-02-09T11:59:37.831Z,10.66
2019-02-09T12:02:08.549Z,10.70
2019-02-09T12:04:41.461Z,10.79
2019-02-09T12:07:12.194Z,10.77
2019-02-09T12:09:42.810Z,10.80
2019-02-09T12:12:13.527Z,10.78
2019-02-09T12:14:44.059Z,10.87
2019-02-09T12:17:16.030Z,10.90
2019-02-09T12:19:46.655Z,10.97
2019-02-09T12:22:17.312Z,10.89
2019-02-09T12:24:47.967Z,10.78
2019-02-09T12:27:18.617Z,10.71
2019-02-09T12:29:49.173Z,10.78
2019-02-09T12:32:22.031Z,10.88
2019-02-09T12:34:52.708Z,10.92
2019-02-09T12:37:23.214Z,10.92
2019-02-09T12:39:54.169Z,10.84
2019-02-09T12:42:24.535Z,10.88
2019-02-09T12:44:58.701Z,10.82
2019-02-09T12:47:29.346Z,10.84
2019-02-09T12:49:59.977Z,10.82
2019-02-09T12:52:30.951Z,10.70
2019-02-09T12:55:01.573Z,10.77
2019-02-09T12:57:32.270Z,10.74
2019-02-09T13:00:02.984Z,10.58
2019-02-09T13:02:33.817Z,10.56
2019-02-09T13:05:05.114Z,10.64
2019-02-09T13:07:35.881Z,10.73
2019-02-09T13:10:14.456Z,10.48
2019-02-09T13:12:45.123Z,10.57
2019-02-09T13:15:27.954Z,10.70
2019-02-09T13:17:58.545Z,10.62
2019-02-09T13:20:30.791Z,10.64
2019-02-09T13:23:05.127Z,10.72
2019-02-09T13:25:35.972Z,10.70
2019-02-09T13:28:06.904Z,10.78
2019-02-09T13:30:39.688Z,10.80
2019-02-09T13:33:10.431Z,10.72
2019-02-09T13:35:44.489Z,10.66
2019-02-09T13:38:15.070Z,10.73
2019-02-09T13:40:45.844Z,10.79
2019-02-09T13:43:16.205Z,10.74
2019-02-09T13:45:49.398Z,10.86
2019-02-09T13:48:21.235Z,10.92
2019-02-09T13:50:51.460Z,11.00
2019-02-09T13:53:22.149Z,11.11
2019-02-09T13:55:52.781Z,11.00
2019-02-09T13:58:34.501Z,11.07
2019-02-09T14:01:11.568Z,10.94
2019-02-09T14:03:46.868Z,10.93
2019-02-09T14:06:17.621Z,10.92
2019-02-09T14:08:50.755Z,10.89
2019-02-09T14:11:21.328Z,10.85
2019-02-09T14:13:52.060Z,10.88
2019-02-09T14:16:22.621Z,10.98
2019-02-09T14:18:53.426Z,10.95
2019-02-09T14:21:24.198Z,11.14
2019-02-09T14:24:06.622Z,11.17
2019-02-09T14:26:33.676Z,11.18
2019-02-09T14:29:07.311Z,11.13
2019-02-09T14:31:39.497Z,11.03
2019-02-09T14:34:11.659Z,10.94
2019-02-09T14:36:43.773Z,11.01
2019-02-09T14:39:15.972Z,10.95
2019-02-09T14:41:46.564Z,10.87
2019-02-09T14:44:18.454Z,10.91
2019-02-09T14:46:48.795Z,10.92
2019-02-09T14:49:21.013Z,10.96
2019-02-09T14:51:54.530Z,10.93
2019-02-09T14:54:28.220Z,11.00
2019-02-09T14:57:02.077Z,11.00
2019-02-09T14:59:32.887Z,10.94
2019-02-09T15:02:03.658Z,10.83
2019-02-09T15:04:36.027Z,10.76
2019-02-09T15:07:08.314Z,10.80
2019-02-09T15:09:38.656Z,10.68
2019-02-09T15:12:09.153Z,10.74
2019-02-09T15:14:39.930Z,10.82
2019-02-09T15:17:10.507Z,10.79
2019-02-09T15:19:44.115Z,10.83
2019-02-09T15:22:14.656Z,10.81
2019-02-09T15:24:45.278Z,10.88
2019-02-09T15:27:15.853Z,10.89
2019-02-09T15:29:50.283Z,10.88
2019-02-09T15:32:20.587Z,10.88
2019-02-09T15:34:54.197Z,10.84
2019-02-09T15:37:25.227Z,10.84
2019-02-09T15:39:57.753Z,10.65
2019-02-09T15:42:28.695Z,10.75
2019-02-09T15:44:59.512Z,10.89
2019-02-09T15:47:30.091Z,10.89
2019-02-09T15:50:00.740Z,10.85
2019-02-09T15:52:37.455Z,10.84
2019-02-09T15:55:11.937Z,10.73
2019-02-09T15:57:43.067Z,10.71
2019-02-09T16:00:25.502Z,10.65
2019-02-09T16:02:59.168Z,10.62
2019-02-09T16:05:29.719Z,10.60
2019-02-09T16:08:00.367Z,10.70
2019-02-09T16:10:32.646Z,10.73
2019-02-09T16:13:02.960Z,10.78
2019-02-09T16:15:33.867Z,10.71
2019-02-09T16:18:04.828Z,10.57
2019-02-09T16:20:36.837Z,10.58
2019-02-09T16:23:07.445Z,10.64
2019-02-09T16:25:38.089Z,10.64
2019-02-09T16:28:09.101Z,10.68
2019-02-09T16:30:40.449Z,10.60
2019-02-09T16:33:12.997Z,10.54
2019-02-09T16:35:45.675Z,10.33
2019-02-09T16:38:16.449Z,10.30
2019-02-09T16:40:47.664Z,10.29
2019-02-09T16:43:19.000Z,10.28
2019-02-09T16:45:50.169Z,10.22
2019-02-09T16:48:21.222Z,10.22
2019-02-09T16:50:52.302Z,10.23
2019-02-09T16:53:23.411Z,10.08
2019-02-09T16:55:54.752Z,10.18
2019-02-09T16:58:25.489Z,10.16
2019-02-09T17:00:56.428Z,10.19
2019-02-09T17:03:28.787Z,10.05
2019-02-09T17:05:59.415Z,10.23
2019-02-09T17:08:30.396Z,10.18
2019-02-09T17:11:01.100Z,10.30
2019-02-09T17:13:34.538Z,10.28
2019-02-09T17:16:05.707Z,10.33
2019-02-09T17:18:38.049Z,10.39
2019-02-09T17:21:09.271Z,10.16
2019-02-09T17:23:41.859Z,10.30
2019-02-09T17:26:17.783Z,10.30
2019-02-09T17:28:50.474Z,10.29
2019-02-09T17:31:24.609Z,10.39
2019-02-09T17:33:56.673Z,10.41
2019-02-09T17:36:27.778Z,10.43
2019-02-09T17:39:05.062Z,10.38
2019-02-09T17:41:36.409Z,10.34
2019-02-09T17:44:09.700Z,10.37
2019-02-09T17:46:40.678Z,10.22
2019-02-09T17:49:11.890Z,9.98
2019-02-09T17:51:42.816Z,9.55
2019-02-09T17:54:14.027Z,9.16
2019-02-09T17:56:45.382Z,8.91
2019-02-09T17:59:16.695Z,8.76
2019-02-09T18:01:48.070Z,8.63
2019-02-09T18:04:18.871Z,8.54
2019-02-09T18:06:50.169Z,8.52
2019-02-09T18:09:21.200Z,8.52
2019-02-09T18:11:52.683Z,8.56
2019-02-09T18:14:24.099Z,8.52
2019-02-09T18:16:55.212Z,8.56
2019-02-09T18:19:26.396Z,8.59
2019-02-09T18:21:57.599Z,8.61
2019-02-09T18:24:28.244Z,8.61
2019-02-09T18:26:59.591Z,8.73
2019-02-09T18:29:30.783Z,8.73
2019-02-09T18:32:02.663Z,8.77
2019-02-09T18:34:33.770Z,8.76
2019-02-09T18:37:05.817Z,8.76
2019-02-09T18:39:36.783Z,8.73
2019-02-09T18:42:07.843Z,8.80
2019-02-09T18:44:38.877Z,8.82
2019-02-09T18:47:10.141Z,8.88
2019-02-09T18:49:41.139Z,8.81
2019-02-09T18:52:12.362Z,8.85
2019-02-09T18:54:43.520Z,8.88
2019-02-09T18:57:14.102Z,8.82
2019-02-09T18:59:44.735Z,9.04
2019-02-09T19:02:15.753Z,9.07
2019-02-09T19:04:47.919Z,9.00
2019-02-09T19:07:18.958Z,9.06
2019-02-09T19:09:50.296Z,9.05
2019-02-09T19:12:21.597Z,8.82
2019-02-09T19:14:54.055Z,8.78
2019-02-09T19:17:24.812Z,8.96
2019-02-09T19:19:55.856Z,9.02
2019-02-09T19:22:33.141Z,8.94
2019-02-09T19:25:04.258Z,8.94
2019-02-09T19:27:35.156Z,9.00
2019-02-09T19:30:11.903Z,9.06
2019-02-09T19:32:42.272Z,8.94
2019-02-09T19:35:14.592Z,8.98
2019-02-09T19:37:48.045Z,8.93
2019-02-09T19:40:25.902Z,8.67
2019-02-09T19:42:56.198Z,8.84
2019-02-09T19:45:37.290Z,8.70
2019-02-09T19:48:08.750Z,8.79
2019-02-09T19:50:39.910Z,8.72
2019-02-09T19:53:10.934Z,8.70
2019-02-09T19:55:42.625Z,8.60
2019-02-09T19:58:14.565Z,8.66
2019-02-09T20:00:48.902Z,8.54
2019-02-09T20:03:20.005Z,8.64
2019-02-09T20:05:51.285Z,8.70
2019-02-09T20:08:24.608Z,8.68
2019-02-09T20:10:55.403Z,8.62
2019-02-09T20:13:26.659Z,8.65
2019-02-09T20:15:57.700Z,8.60
2019-02-09T20:18:29.072Z,8.59
2019-02-09T20:20:59.902Z,8.58
2019-02-09T20:23:31.332Z,8.56
2019-02-09T20:26:02.543Z,8.52
2019-02-09T20:28:33.836Z,8.48
2019-02-09T20:31:05.001Z,8.44
2019-02-09T20:33:36.280Z,8.47
2019-02-09T20:36:07.544Z,8.52
2019-02-09T20:38:41.851Z,8.56
2019-02-09T20:41:18.419Z,8.53
2019-02-09T20:43:51.294Z,8.58
2019-02-09T20:46:22.420Z,8.56
2019-02-09T20:48:53.631Z,8.49
2019-02-09T20:51:24.505Z,8.58
2019-02-09T20:53:55.646Z,8.62
2019-02-09T20:56:26.635Z,8.60
2019-02-09T20:58:58.812Z,8.58
2019-02-09T21:01:29.940Z,8.54
2019-02-09T21:04:01.310Z,8.46
2019-02-09T21:06:33.758Z,8.44
2019-02-09T21:09:07.654Z,8.46
2019-02-09T21:11:41.763Z,8.35
2019-02-09T21:14:13.459Z,8.33
2019-02-09T21:16:51.759Z,8.33
2019-02-09T21:19:21.347Z,8.33
2019-02-09T21:21:53.861Z,8.28
2019-02-09T21:24:29.314Z,8.30
2019-02-09T21:27:00.535Z,8.31
2019-02-09T21:29:31.950Z,8.41
2019-02-09T21:32:02.978Z,8.45
2019-02-09T21:34:34.738Z,8.37
2019-02-09T21:37:06.187Z,8.37
2019-02-09T21:39:38.383Z,8.35
2019-02-09T21:42:12.283Z,8.38
2019-02-09T21:44:44.845Z,8.42
2019-02-09T21:47:16.212Z,8.40
2019-02-09T21:49:47.188Z,8.38
2019-02-09T21:52:18.490Z,8.46
2019-02-09T21:54:49.770Z,8.46
2019-02-09T21:57:21.137Z,8.46
2019-02-09T21:59:52.514Z,8.46
2019-02-09T22:02:23.836Z,8.49
2019-02-09T22:04:55.051Z,8.54
2019-02-09T22:07:26.388Z,8.56
2019-02-09T22:09:57.160Z,8.54
2019-02-09T22:12:28.057Z,8.40
2019-02-09T22:14:59.770Z,8.52
2019-02-09T22:17:32.755Z,8.52
2019-02-09T22:20:07.156Z,8.53
2019-02-09T22:22:38.780Z,8.43
2019-02-09T22:25:13.302Z,8.48
2019-02-09T22:27:45.021Z,8.31
2019-02-09T22:30:21.640Z,8.40
2019-02-09T22:32:54.500Z,8.34
2019-02-09T22:35:25.049Z,8.36
2019-02-09T22:37:55.683Z,8.39
2019-02-09T22:40:31.602Z,8.31
2019-02-09T22:43:02.378Z,8.36
2019-02-09T22:45:32.963Z,8.38
2019-02-09T22:48:03.660Z,8.46
2019-02-09T22:50:39.533Z,8.53
2019-02-09T22:53:09.828Z,8.54
2019-02-09T22:55:40.674Z,8.40
2019-02-09T22:58:14.219Z,8.63
2019-02-09T23:00:58.425Z,8.61
2019-02-09T23:03:48.200Z,8.63
2019-02-09T23:06:34.090Z,8.68
2019-02-09T23:09:12.597Z,8.48
2019-02-09T23:11:43.124Z,8.52
2019-02-09T23:14:13.848Z,8.47
2019-02-09T23:16:44.384Z,8.68
2019-02-09T23:19:15.007Z,8.58
2019-02-09T23:21:47.347Z,8.69
2019-02-09T23:24:18.040Z,8.63
2019-02-09T23:26:51.724Z,8.74
2019-02-09T23:29:22.343Z,8.61
2019-02-09T23:31:52.985Z,8.66
2019-02-09T23:34:25.999Z,8.59
2019-02-09T23:36:56.614Z,8.51
2019-02-09T23:39:27.233Z,8.70
2019-02-09T23:41:57.477Z,8.74
2019-02-09T23:44:28.594Z,8.48
2019-02-09T23:47:00.354Z,8.64
2019-02-09T23:49:34.868Z,8.42
2019-02-09T23:52:05.526Z,8.39
2019-02-09T23:54:35.803Z,8.59
2019-02-09T23:57:06.704Z,8.50
2019-02-09T23:59:37.011Z,8.45
